WetterOnline ( https://www.wetteronline.de )

Wetter aktuell Oelsnitz/Erzgeb.

Aktuelles Wetter: Chemnitz (420m)

6-stündlich | Neueste Meldungen
Ortszeit Temperatur Wetter
Do, 08.06. 14:00 20.2° C bewölkt
Do, 08.06. 8:00 15.1° C bewölkt
Do, 08.06. 2:00 14.7° C leichter Regen
Mi, 07.06. 20:00 16.7° C bedeckt
Mi, 07.06. 14:00 17.7° C Sprühregen
Mi, 07.06. 8:00 13.6° C bedeckt
Mi, 07.06. 2:00 14.3° C bedeckt
Di, 06.06. 20:00 15.7° C bedeckt
Ortszeit Temperatur Wetter
Do, 08.06. 18:00 16.4° C bewölkt
Do, 08.06. 17:40 16.1° C bewölkt
Do, 08.06. 17:30 15.6° C bedeckt
Do, 08.06. 17:20 15.6° C bedeckt
Do, 08.06. 17:10 15.1° C leichter Regen
Do, 08.06. 17:00 14.9° C leichter Regen
Do, 08.06. 16:50 14.9° C leichter Regen
Do, 08.06. 16:30 17.6° C leichter Regen
Do, 08.06. 16:00 21.3° C wolkig
Do, 08.06. 15:30 20.9° C bedeckt
Do, 08.06. 15:00 20.4° C wolkig
Ortszeit Relative Feuchte Sichtweite
Do, 08.06. 14:00 75% 23 km
Do, 08.06. 8:00 94% 13 km
Do, 08.06. 2:00 92% 9 km
Mi, 07.06. 20:00 86% 35 km
Mi, 07.06. 14:00 77% 25 km
Mi, 07.06. 8:00 96% 14 km
Mi, 07.06. 2:00 100% 1.7 km
Di, 06.06. 20:00 94% 21 km
Ortszeit Relative Feuchte Sichtweite
Do, 08.06. 18:00 84% 45 km
Do, 08.06. 17:40 85% -
Do, 08.06. 17:30 80% 40 km
Do, 08.06. 17:20 80% -
Do, 08.06. 17:10 85% -
Do, 08.06. 17:00 87% 25 km
Do, 08.06. 16:50 87% -
Do, 08.06. 16:30 67% 30 km
Do, 08.06. 16:00 73% 28 km
Do, 08.06. 15:30 70% -
Do, 08.06. 15:00 76% 22 km
Ortszeit Niederschlagsmenge Niederschlagsart
Do, 08.06. 14:00 0.1 l/m2 in 6 Std. Regen
Do, 08.06. 8:00 1 l/m2 in 12 Std. Regen
Do, 08.06. 2:00 0.4 l/m2 in 6 Std. Regen
Mi, 07.06. 20:00 2 l/m2 in 12 Std. Regen
Mi, 07.06. 14:00 0.1 l/m2 in 6 Std. Regen
Mi, 07.06. 8:00 1 l/m2 in 12 Std. Regen
Mi, 07.06. 2:00 0.1 l/m2 in 6 Std. Regen
Di, 06.06. 20:00 6 l/m2 in 12 Std. Regen
Ortszeit Niederschlagsmenge Niederschlagsart
Do, 08.06. 18:00 <0.05 l/m2 in 1 Std. Regen
Do, 08.06. 17:40 keine Meldung -
Do, 08.06. 17:30 <0.05 l/m2 in 30 Min Schneeregen
Do, 08.06. 17:20 keine Meldung -
Do, 08.06. 17:10 keine Meldung -
Do, 08.06. 17:00 1.8 l/m2 in 1 Std. Regen
Do, 08.06. 16:50 keine Meldung -
Do, 08.06. 16:30 <0.05 l/m2 in 30 Min -
Do, 08.06. 16:00 0.0 l/m2 in 1 Std. -
Do, 08.06. 15:30 0.0 l/m2 in 30 Min -
Do, 08.06. 15:00 <0.05 l/m2 in 1 Std. Regen
Ortszeit Stärke Spitze Richtung
km/h Bft. km/h Grad Sektor
Do, 08.06. 14:00 11 2 18 10° N
Do, 08.06. 8:00 4 1 14 80° O
Do, 08.06. 2:00 9 2 17 70° O
Mi, 07.06. 20:00 9 2 19 50° NO
Mi, 07.06. 14:00 9 2 22 60° NO
Mi, 07.06. 8:00 4 1 18 230° SW
Mi, 07.06. 2:00 9 2 13 60° NO
Di, 06.06. 20:00 9 2 22 340° N
Ortszeit Stärke Spitze Richtung
km/h Bft. km/h Grad Sektor
Do, 08.06. 18:00 11 2 20 210° SW
Do, 08.06. 17:40 11 2 - 190° S
Do, 08.06. 17:30 11 2 22 180° S
Do, 08.06. 17:20 11 2 - 180° S
Do, 08.06. 17:10 11 2 - 190° S
Do, 08.06. 17:00 14 3 36 190° S
Do, 08.06. 16:50 14 3 - 190° S
Do, 08.06. 16:30 14 3 36 130° SO
Do, 08.06. 16:00 13 3 20 20° N
Do, 08.06. 15:30 13 3 20 30° NO
Do, 08.06. 15:00 11 2 18 350° N
Ortszeit Untergrenze Bedeckung Gattung
total tief tief mittel hoch
Do, 08.06. 14:00 2700 m 8/8 7/8 - - -
Do, 08.06. 8:00 2700 m 7/8 7/8 - - -
Do, 08.06. 2:00 1800 m 8/8 8/8 - - -
Mi, 07.06. 20:00 1800 m 8/8 8/8 - - -
Mi, 07.06. 14:00 2700 m 8/8 1/8 - - -
Mi, 07.06. 8:00 1800 m 8/8 8/8 - - -
Mi, 07.06. 2:00 <30 m 8/8 0/8 - - -
Di, 06.06. 20:00 330 m 8/8 8/8 - - -
Ortszeit Bedeckungsgrad in Achtel und Wolkenuntergrenze
Do, 08.06. 18:00 7(2700m) 8(3900m)
Do, 08.06. 17:40 7
Do, 08.06. 17:30 1(1800m) 8(2700m)
Do, 08.06. 17:20 1(1800m) 1(2100m) 8(2700m)
Do, 08.06. 17:10 8
Do, 08.06. 17:00 2(1800m) 7(2700m)
Do, 08.06. 16:50 2(1800m) 7(2700m)
Do, 08.06. 16:30 2(1020m) 6(1800m) 8(3300m)
Do, 08.06. 16:00 2(2700m) 8(3600m) 8(4800m)
Do, 08.06. 15:30 3(3600m) 8(4200m)
Do, 08.06. 15:00 2(2700m) 8(5400m) 8(7500m)
Ortszeit Luftdruck NN (hPa) Tendenz (hPa in 3 Std.)
Do, 08.06. 14:00 1016 - 0,7
Do, 08.06. 8:00 1017 0,0
Do, 08.06. 2:00 1018 0,0
Mi, 07.06. 20:00 1018 - 0,4
Mi, 07.06. 14:00 1019 + 0,2
Mi, 07.06. 8:00 1019 + 0,5
Mi, 07.06. 2:00 1019 - 0,3
Di, 06.06. 20:00 1018 - 0,3
Ortszeit Luftdruck NN (hPa) Tendenz (hPa in 3 Std.)
Do, 08.06. 18:00 1015 - 0,9
Do, 08.06. 17:40 1015 keine Meldung
Do, 08.06. 17:30 1016 - 0,5
Do, 08.06. 17:20 1016 keine Meldung
Do, 08.06. 17:10 1016 keine Meldung
Do, 08.06. 17:00 1017 0,0
Do, 08.06. 16:50 1017 keine Meldung
Do, 08.06. 16:30 1017 + 0,3
Do, 08.06. 16:00 1015 - 1,0
Do, 08.06. 15:30 1015 - 1,1
Do, 08.06. 15:00 1015 - 1,1
Ortszeit Schneehöhe (cm)
Do, 08.06. 14:00 0
Do, 08.06. 8:00 0
Do, 08.06. 2:00 0
Mi, 07.06. 20:00 0
Mi, 07.06. 14:00 0
Mi, 07.06. 8:00 0
Mi, 07.06. 2:00 0
Di, 06.06. 20:00 0
Ortszeit Schneehöhe (cm)
Do, 08.06. 18:00 0
Do, 08.06. 17:40 -
Do, 08.06. 17:30 0
Do, 08.06. 17:20 0
Do, 08.06. 17:10 -
Do, 08.06. 17:00 0
Do, 08.06. 16:50 0
Do, 08.06. 16:30 0
Do, 08.06. 16:00 0
Do, 08.06. 15:30 0
Do, 08.06. 15:00 0
Link zu dieser Seite / Seite empfehlen

Das Wetter in ...